createdAt,value
2019-01-17T00:02:00.863Z,2.55
2019-01-17T00:04:48.387Z,2.56
2019-01-17T00:10:11.669Z,2.62
2019-01-17T00:12:59.191Z,2.65
2019-01-17T00:18:45.035Z,2.71
2019-01-17T00:21:32.634Z,2.70
2019-01-17T00:24:20.177Z,2.71
2019-01-17T00:27:07.701Z,2.66
2019-01-17T00:32:30.692Z,2.67
2019-01-17T00:35:18.205Z,2.67
2019-01-17T00:38:05.873Z,2.68
2019-01-17T00:40:53.394Z,2.68
2019-01-17T00:43:41.037Z,2.65
2019-01-17T00:46:40.577Z,2.61
2019-01-17T00:49:28.210Z,2.53
2019-01-17T00:55:04.827Z,2.48
2019-01-17T00:57:52.347Z,2.46
2019-01-17T01:00:39.952Z,2.45
2019-01-17T01:03:27.469Z,2.47
2019-01-17T01:06:15.341Z,2.49
2019-01-17T01:09:02.990Z,2.47
2019-01-17T01:14:46.387Z,2.42
2019-01-17T01:17:33.907Z,2.41
2019-01-17T01:20:21.545Z,2.41
2019-01-17T01:23:09.124Z,2.39
2019-01-17T01:25:57.002Z,2.39
2019-01-17T01:28:44.523Z,2.41
2019-01-17T01:31:32.395Z,2.45
2019-01-17T01:37:09.007Z,2.51
2019-01-17T01:39:56.529Z,2.53
2019-01-17T01:42:44.249Z,2.54
2019-01-17T01:45:31.836Z,2.53
2019-01-17T01:48:19.421Z,2.52
2019-01-17T01:51:06.945Z,2.51
2019-01-17T01:53:35.407Z,2.52
2019-01-17T01:56:03.801Z,2.58
2019-01-17T01:58:32.195Z,2.60
2019-01-17T02:01:00.690Z,2.63
2019-01-17T02:03:29.083Z,2.64
2019-01-17T02:05:57.480Z,2.63
2019-01-17T02:08:25.895Z,2.69
2019-01-17T02:10:54.359Z,2.74
2019-01-17T02:13:22.815Z,2.70
2019-01-17T02:15:51.422Z,2.64
2019-01-17T02:18:19.807Z,2.61
2019-01-17T02:20:48.273Z,2.59
2019-01-17T02:23:16.757Z,2.60
2019-01-17T02:25:45.149Z,2.62
2019-01-17T02:28:13.546Z,2.63
2019-01-17T02:33:16.008Z,2.65
2019-01-17T02:35:44.621Z,2.68
2019-01-17T02:38:13.023Z,2.66
2019-01-17T02:40:41.416Z,2.61
2019-01-17T02:43:09.905Z,2.57
2019-01-17T02:45:38.303Z,2.55
2019-01-17T02:48:06.839Z,2.53
2019-01-17T02:50:35.332Z,2.48
2019-01-17T02:53:03.853Z,2.45
2019-01-17T02:55:32.252Z,2.41
2019-01-17T02:58:00.807Z,2.37
2019-01-17T03:00:29.198Z,2.33
2019-01-17T03:02:57.592Z,2.32
2019-01-17T03:05:26.129Z,2.32
2019-01-17T03:07:54.514Z,2.33
2019-01-17T03:10:22.909Z,2.36
2019-01-17T03:12:51.406Z,2.40
2019-01-17T03:15:19.802Z,2.44
2019-01-17T03:17:48.269Z,2.47
2019-01-17T03:20:16.754Z,2.50
2019-01-17T03:22:45.143Z,2.50
2019-01-17T03:25:13.601Z,2.52
2019-01-17T03:30:55.616Z,2.60
2019-01-17T03:33:24.193Z,2.61
2019-01-17T03:35:52.585Z,2.61
2019-01-17T03:38:20.983Z,2.63
2019-01-17T03:40:49.410Z,2.65
2019-01-17T03:43:17.795Z,2.69
2019-01-17T03:45:46.259Z,2.74
2019-01-17T03:48:14.754Z,2.83
2019-01-17T03:50:43.146Z,2.87
2019-01-17T03:53:11.610Z,2.88
2019-01-17T03:58:15.435Z,2.84
2019-01-17T04:00:43.829Z,2.81
2019-01-17T04:03:12.222Z,2.77
2019-01-17T04:05:40.643Z,2.72
2019-01-17T04:08:09.184Z,2.70
2019-01-17T04:10:37.565Z,2.67
2019-01-17T04:13:05.990Z,2.64
2019-01-17T04:15:34.453Z,2.61
2019-01-17T04:18:02.847Z,2.59
2019-01-17T04:20:31.267Z,2.59
2019-01-17T04:22:59.653Z,2.60
2019-01-17T04:25:28.045Z,2.60
2019-01-17T04:27:56.547Z,2.62
2019-01-17T04:30:24.935Z,2.63
2019-01-17T04:32:53.322Z,2.62
2019-01-17T04:37:55.387Z,2.61
2019-01-17T04:40:23.810Z,2.58
2019-01-17T04:42:52.207Z,2.56
2019-01-17T04:45:20.605Z,2.53
2019-01-17T04:50:22.836Z,2.50
2019-01-17T04:53:03.660Z,2.50
2019-01-17T04:55:32.075Z,2.50
2019-01-17T04:58:00.456Z,2.50
2019-01-17T05:00:28.865Z,2.48
2019-01-17T05:02:57.263Z,2.48
2019-01-17T05:05:25.652Z,2.47
2019-01-17T05:10:28.421Z,2.48
2019-01-17T05:15:30.638Z,2.50
2019-01-17T05:17:59.059Z,2.50
2019-01-17T05:20:46.781Z,2.49
2019-01-17T05:25:49.057Z,2.45
2019-01-17T05:28:17.497Z,2.48
2019-01-17T05:30:45.873Z,2.52
2019-01-17T05:33:14.256Z,2.49
2019-01-17T05:38:30.106Z,2.46
2019-01-17T05:40:58.501Z,2.45
2019-01-17T05:43:26.985Z,2.42
2019-01-17T05:45:55.395Z,2.39
2019-01-17T05:48:23.797Z,2.35
2019-01-17T05:51:11.552Z,2.33
2019-01-17T05:57:12.227Z,2.21
2019-01-17T05:59:40.618Z,2.15
2019-01-17T06:02:09.014Z,2.11
2019-01-17T06:04:37.443Z,2.08
2019-01-17T06:07:05.850Z,2.07
2019-01-17T06:09:34.239Z,2.07
2019-01-17T06:12:02.672Z,2.07
2019-01-17T06:14:31.053Z,2.07
2019-01-17T06:16:59.448Z,2.09
2019-01-17T06:22:01.447Z,2.06
2019-01-17T06:27:03.997Z,1.99
2019-01-17T06:29:32.396Z,1.92
2019-01-17T06:34:34.379Z,1.79
2019-01-17T06:39:36.764Z,1.67
2019-01-17T06:42:24.370Z,1.62
2019-01-17T06:44:52.770Z,1.58
2019-01-17T06:47:21.223Z,1.54
2019-01-17T06:52:23.286Z,1.55
2019-01-17T06:54:51.748Z,1.56
2019-01-17T06:57:20.136Z,1.55
2019-01-17T06:59:48.578Z,1.51
2019-01-17T07:02:17.158Z,1.46
2019-01-17T07:04:45.552Z,1.42
2019-01-17T07:07:13.948Z,1.38
2019-01-17T07:09:42.365Z,1.34
2019-01-17T07:12:10.754Z,1.33
2019-01-17T07:14:39.146Z,1.31
2019-01-17T07:17:07.730Z,1.32
2019-01-17T07:19:36.121Z,1.33
2019-01-17T07:22:04.608Z,1.34
2019-01-17T07:27:07.203Z,1.39
2019-01-17T07:29:35.648Z,1.40
2019-01-17T07:43:14.476Z,1.65
2019-01-17T07:48:17.430Z,1.81
2019-01-17T07:50:45.862Z,1.88
2019-01-17T07:53:14.258Z,1.95
2019-01-17T07:55:47.580Z,2.03
2019-01-17T07:58:52.726Z,2.06
2019-01-17T08:01:21.132Z,2.10
2019-01-17T08:03:49.528Z,2.18
2019-01-17T08:06:37.266Z,2.22
2019-01-17T08:09:46.175Z,2.26
2019-01-17T08:14:49.913Z,2.33
2019-01-17T08:17:18.348Z,2.39
2019-01-17T08:19:46.742Z,2.43
2019-01-17T08:22:15.134Z,2.47
2019-01-17T08:24:43.556Z,2.48
2019-01-17T08:27:31.144Z,2.52
2019-01-17T08:29:59.559Z,2.59
2019-01-17T08:32:27.954Z,2.65
2019-01-17T08:34:56.348Z,2.73
2019-01-17T08:39:58.682Z,2.87
2019-01-17T08:42:27.117Z,2.95
2019-01-17T08:44:55.516Z,3.04
2019-01-17T08:47:23.907Z,3.13
2019-01-17T08:49:52.333Z,3.20
2019-01-17T08:52:20.729Z,3.27
2019-01-17T08:54:49.125Z,3.37
2019-01-17T08:57:17.579Z,3.46
2019-01-17T08:59:45.979Z,3.54
2019-01-17T09:02:14.381Z,3.63
2019-01-17T09:04:42.813Z,3.73
2019-01-17T09:07:11.209Z,3.83
2019-01-17T09:09:39.601Z,3.90
2019-01-17T09:14:41.700Z,3.98
2019-01-17T09:17:10.092Z,3.99
2019-01-17T09:22:12.891Z,4.02
2019-01-17T09:24:42.176Z,4.08
2019-01-17T09:27:11.453Z,4.10
2019-01-17T09:29:39.846Z,4.12
2019-01-17T09:32:27.586Z,4.13
2019-01-17T09:34:55.980Z,4.16
2019-01-17T09:37:24.374Z,4.20
2019-01-17T09:39:52.806Z,4.25
2019-01-17T09:42:21.269Z,4.33
2019-01-17T09:44:49.666Z,4.41
2019-01-17T09:50:52.060Z,4.56
2019-01-17T09:53:20.628Z,4.61
2019-01-17T09:55:49.016Z,4.60
2019-01-17T09:58:17.404Z,4.63
2019-01-17T10:00:45.904Z,4.67
2019-01-17T10:03:14.298Z,4.71
2019-01-17T10:05:42.692Z,4.76
2019-01-17T10:08:11.192Z,4.82
2019-01-17T10:10:39.608Z,4.85
2019-01-17T10:13:08.004Z,4.88
2019-01-17T10:16:16.419Z,4.92
2019-01-17T10:19:24.788Z,4.95
2019-01-17T10:22:31.812Z,5.03
2019-01-17T10:25:40.184Z,5.12
2019-01-17T10:28:47.190Z,5.17
2019-01-17T10:31:55.532Z,5.25
2019-01-17T10:35:02.579Z,5.37
2019-01-17T10:38:09.562Z,5.49
2019-01-17T10:41:16.660Z,5.55
2019-01-17T10:44:25.020Z,5.57
2019-01-17T10:47:33.434Z,5.59
2019-01-17T10:50:41.823Z,5.65
2019-01-17T10:53:50.250Z,5.77
2019-01-17T10:56:57.243Z,5.88
2019-01-17T11:00:05.666Z,5.99
2019-01-17T11:03:12.686Z,6.15
2019-01-17T11:06:19.706Z,6.30
2019-01-17T11:09:28.020Z,6.42
2019-01-17T11:12:17.354Z,6.55
2019-01-17T11:15:24.346Z,6.66
2019-01-17T11:18:32.767Z,6.73
2019-01-17T11:21:39.754Z,6.74
2019-01-17T11:24:47.108Z,6.67
2019-01-17T11:27:55.542Z,6.64
2019-01-17T11:31:02.560Z,6.64
2019-01-17T11:34:10.886Z,6.67
2019-01-17T11:37:18.051Z,6.74
2019-01-17T11:40:26.370Z,6.81
2019-01-17T11:43:34.724Z,6.93
2019-01-17T11:46:41.710Z,6.90
2019-01-17T11:49:48.901Z,6.84
2019-01-17T11:52:55.880Z,6.93
2019-01-17T11:56:04.214Z,6.94
2019-01-17T11:59:12.522Z,6.89
2019-01-17T12:02:19.648Z,6.76
2019-01-17T12:05:00.383Z,6.60
2019-01-17T12:10:02.773Z,6.42
2019-01-17T12:12:31.258Z,6.26
2019-01-17T12:20:42.099Z,6.40
2019-01-17T12:23:10.570Z,6.61
2019-01-17T12:25:38.962Z,6.80
2019-01-17T12:28:07.348Z,6.95
2019-01-17T12:30:35.796Z,7.10
2019-01-17T12:33:04.192Z,7.25
2019-01-17T12:35:32.573Z,7.39
2019-01-17T12:38:01.004Z,7.54
2019-01-17T12:40:29.404Z,7.66
2019-01-17T12:42:57.807Z,7.79
2019-01-17T12:50:35.074Z,8.30
2019-01-17T12:53:22.758Z,8.44
2019-01-17T12:56:10.580Z,8.47
2019-01-17T13:01:12.790Z,8.67
2019-01-17T13:06:28.716Z,8.77
2019-01-17T13:08:57.109Z,8.84
2019-01-17T13:11:25.503Z,8.91
2019-01-17T13:16:27.529Z,8.97
2019-01-17T13:18:55.922Z,9.00
2019-01-17T13:23:58.745Z,9.14
2019-01-17T13:26:46.503Z,9.19
2019-01-17T13:29:14.889Z,9.25
2019-01-17T13:31:43.286Z,9.34
2019-01-17T13:34:11.727Z,9.36
2019-01-17T13:36:40.709Z,9.41
2019-01-17T13:39:10.233Z,9.50
2019-01-17T13:41:38.669Z,9.51
2019-01-17T13:44:07.227Z,9.55
2019-01-17T13:46:55.050Z,9.70
2019-01-17T13:49:42.638Z,9.77
2019-01-17T13:54:45.300Z,9.81
2019-01-17T13:57:13.738Z,9.84
2019-01-17T13:59:42.135Z,9.92
2019-01-17T14:02:29.916Z,9.92
2019-01-17T14:04:58.311Z,9.96
2019-01-17T14:07:26.732Z,10.03
2019-01-17T14:12:28.807Z,9.83
2019-01-17T14:14:57.231Z,9.42
2019-01-17T14:17:25.621Z,9.23
2019-01-17T14:19:54.008Z,9.09
2019-01-17T14:27:58.166Z,8.82
2019-01-17T14:31:06.471Z,8.72
2019-01-17T14:33:34.898Z,8.70
2019-01-17T14:36:03.299Z,8.61
2019-01-17T14:38:31.695Z,8.53
2019-01-17T14:43:34.059Z,8.41
2019-01-17T14:46:02.488Z,8.35
2019-01-17T14:48:30.875Z,8.31
2019-01-17T14:50:59.268Z,8.24
2019-01-17T14:53:27.701Z,8.20
2019-01-17T14:55:56.089Z,8.14
2019-01-17T14:58:24.557Z,8.06
2019-01-17T15:00:52.972Z,8.00
2019-01-17T15:03:21.368Z,7.94
2019-01-17T15:05:49.757Z,7.87
2019-01-17T15:08:18.263Z,7.80
2019-01-17T15:10:46.716Z,7.76
2019-01-17T15:13:15.107Z,7.68
2019-01-17T15:16:02.852Z,7.58
2019-01-17T15:18:31.242Z,7.49
2019-01-17T15:20:59.629Z,7.41
2019-01-17T15:23:47.374Z,7.33
2019-01-17T15:26:15.766Z,7.26
2019-01-17T15:28:44.160Z,7.16
2019-01-17T15:33:46.510Z,7.01
2019-01-17T15:38:49.306Z,6.87
2019-01-17T15:41:17.761Z,6.79
2019-01-17T15:43:46.156Z,6.73
2019-01-17T15:46:14.553Z,6.68
2019-01-17T15:51:17.571Z,6.59
2019-01-17T15:56:19.902Z,6.53
2019-01-17T15:58:48.289Z,6.52
2019-01-17T16:03:51.076Z,6.46
2019-01-17T16:06:19.488Z,6.43
2019-01-17T16:08:47.888Z,6.40
2019-01-17T16:11:16.288Z,6.37
2019-01-17T16:13:44.700Z,6.33
2019-01-17T16:16:13.091Z,6.28
2019-01-17T16:18:41.493Z,6.26
2019-01-17T16:21:09.934Z,6.22
2019-01-17T16:23:38.325Z,6.18
2019-01-17T16:26:06.721Z,6.13
2019-01-17T16:28:35.145Z,6.09
2019-01-17T16:31:03.609Z,6.04
2019-01-17T16:33:32.007Z,6.02
2019-01-17T16:36:00.425Z,6.00
2019-01-17T16:38:28.815Z,5.95
2019-01-17T16:40:57.214Z,5.90
2019-01-17T16:45:59.385Z,5.85
2019-01-17T16:51:01.802Z,5.79
2019-01-17T17:01:32.260Z,5.72
2019-01-17T17:06:34.529Z,5.63
2019-01-17T17:12:01.327Z,5.55
2019-01-17T17:14:29.721Z,5.50
2019-01-17T17:16:58.123Z,5.46
2019-01-17T17:19:26.549Z,5.43
2019-01-17T17:21:54.947Z,5.41
2019-01-17T17:24:23.347Z,5.37
2019-01-17T17:29:25.992Z,5.33
2019-01-17T17:32:13.741Z,5.31
2019-01-17T17:34:42.137Z,5.25
2019-01-17T17:37:10.531Z,5.21
2019-01-17T17:42:12.836Z,5.19
2019-01-17T17:44:41.239Z,5.19
2019-01-17T17:52:18.879Z,5.22
2019-01-17T17:54:47.336Z,5.21
2019-01-17T17:57:15.719Z,5.21
2019-01-17T17:59:44.171Z,5.22
2019-01-17T18:02:31.768Z,5.22
2019-01-17T18:05:00.220Z,5.23
2019-01-17T18:07:28.573Z,5.24
2019-01-17T18:09:56.969Z,5.27
2019-01-17T18:12:37.898Z,5.29
2019-01-17T18:15:46.210Z,5.31
2019-01-17T18:18:14.736Z,5.36
2019-01-17T18:20:43.126Z,5.42
2019-01-17T18:23:30.778Z,5.44
2019-01-17T18:25:59.172Z,5.49
2019-01-17T18:28:27.566Z,5.52
2019-01-17T18:30:55.978Z,5.55
2019-01-17T18:33:24.440Z,5.58
2019-01-17T18:36:12.193Z,5.62
2019-01-17T18:38:40.665Z,5.64
2019-01-17T18:41:09.064Z,5.69
2019-01-17T18:46:11.771Z,5.77
2019-01-17T18:51:33.414Z,5.79
2019-01-17T18:54:01.841Z,5.80
2019-01-17T18:56:30.239Z,5.79
2019-01-17T18:58:58.622Z,5.80
2019-01-17T19:04:01.007Z,5.80
2019-01-17T19:06:48.777Z,5.80
2019-01-17T19:09:17.171Z,5.80
2019-01-17T19:11:45.566Z,5.78
2019-01-17T19:14:13.971Z,5.78
2019-01-17T19:16:42.372Z,5.77
2019-01-17T19:19:10.767Z,5.76
2019-01-17T19:24:12.766Z,5.74
2019-01-17T19:26:41.162Z,5.73
2019-01-17T19:29:09.586Z,5.72
2019-01-17T19:31:38.045Z,5.72
2019-01-17T19:34:06.438Z,5.72
2019-01-17T19:36:34.881Z,5.71
2019-01-17T19:45:09.309Z,5.70
2019-01-17T19:47:37.708Z,5.70
2019-01-17T19:50:46.046Z,5.69
2019-01-17T19:53:14.446Z,5.68
2019-01-17T19:55:43.249Z,5.68
2019-01-17T19:58:11.669Z,5.68
2019-01-17T20:00:59.404Z,5.70
2019-01-17T20:03:27.839Z,5.68
2019-01-17T20:05:56.228Z,5.67
2019-01-17T20:08:24.624Z,5.69
2019-01-17T20:10:53.185Z,5.69
2019-01-17T20:13:21.545Z,5.68
2019-01-17T20:15:50.017Z,5.70
2019-01-17T20:18:18.444Z,5.67
2019-01-17T20:20:46.870Z,5.66
2019-01-17T20:23:15.245Z,5.65
2019-01-17T20:28:18.067Z,5.64
2019-01-17T20:33:20.544Z,5.63
2019-01-17T20:35:48.975Z,5.60
2019-01-17T20:38:17.435Z,5.59
2019-01-17T20:40:45.836Z,5.58
2019-01-17T20:46:07.320Z,5.56
2019-01-17T20:51:09.990Z,5.53
2019-01-17T20:53:38.422Z,5.52
2019-01-17T20:56:26.015Z,5.49
2019-01-17T20:58:54.476Z,5.48
2019-01-17T21:02:02.890Z,5.46
2019-01-17T21:04:31.284Z,5.43
2019-01-17T21:07:05.508Z,5.40
2019-01-17T21:09:29.868Z,5.37
2019-01-17T21:11:58.302Z,5.35
2019-01-17T21:14:26.780Z,5.33
2019-01-17T21:17:14.550Z,5.31
2019-01-17T21:19:42.941Z,5.29
2019-01-17T21:22:11.341Z,5.27
2019-01-17T21:24:39.781Z,5.26
2019-01-17T21:27:08.175Z,5.24
2019-01-17T21:30:16.588Z,5.20
2019-01-17T21:33:24.978Z,5.19
2019-01-17T21:36:12.682Z,5.17
2019-01-17T21:38:41.064Z,5.16
2019-01-17T21:41:09.528Z,5.14
2019-01-17T21:43:37.986Z,5.14
2019-01-17T21:46:06.382Z,5.13
2019-01-17T21:48:34.793Z,5.13
2019-01-17T21:53:37.548Z,5.12
2019-01-17T21:56:05.997Z,5.14
2019-01-17T21:58:56.011Z,5.12
2019-01-17T22:01:42.970Z,5.10
2019-01-17T22:04:30.584Z,5.08
2019-01-17T22:09:33.533Z,5.04
2019-01-17T22:14:35.882Z,5.03
2019-01-17T22:17:23.552Z,5.01
2019-01-17T22:20:04.496Z,4.99
2019-01-17T22:22:32.929Z,4.98
2019-01-17T22:25:02.707Z,4.97
2019-01-17T22:27:31.440Z,4.96
2019-01-17T22:29:59.890Z,4.94
2019-01-17T22:32:28.282Z,4.93
2019-01-17T22:34:56.680Z,4.92
2019-01-17T22:37:25.163Z,4.92
2019-01-17T22:39:53.554Z,4.92
2019-01-17T22:42:21.950Z,4.92
2019-01-17T22:47:29.356Z,4.89
2019-01-17T22:49:57.744Z,4.88
2019-01-17T22:52:26.133Z,4.86
2019-01-17T22:57:28.894Z,4.83
2019-01-17T22:59:57.340Z,4.81
2019-01-17T23:02:25.796Z,4.81
2019-01-17T23:04:54.180Z,4.80
2019-01-17T23:09:56.457Z,4.77
2019-01-17T23:14:59.020Z,4.76
2019-01-17T23:17:27.428Z,4.75
2019-01-17T23:19:55.821Z,4.73
2019-01-17T23:22:36.769Z,4.75
2019-01-17T23:25:45.079Z,4.76
2019-01-17T23:30:47.658Z,4.73
2019-01-17T23:33:16.054Z,4.71
2019-01-17T23:35:44.450Z,4.68
2019-01-17T23:38:12.844Z,4.68
2019-01-17T23:41:00.456Z,4.68
2019-01-17T23:43:28.846Z,4.68
2019-01-17T23:46:16.490Z,4.66
2019-01-17T23:48:44.892Z,4.65
2019-01-17T23:51:13.284Z,4.66
2019-01-17T23:53:41.719Z,4.62
2019-01-17T23:56:10.150Z,4.58
2019-01-17T23:58:38.500Z,4.59
